Time;durP1;ratioP1;P1;durP2;ratioP2;P2;SDS_P1;SDS_P2;PMS_P1;PMS_P2;Temp;Humidity;BMP_temperature;BMP_pressure;BME280_temperature;BME280_humidity;BME280_pressure;Samples;Min_cycle;Max_cycle;Signal;HPM_P1;HPM_P2
2022/01/06 00:01:01;;;;;;;31.27;15.68;;;;;;;-17.73;61.88;99305.94;4920671;29;20460;-81
2022/01/06 00:03:27;;;;;;;30.95;16.25;;;;;;;-17.71;61.87;99321.28;4887992;29;20107;-81
2022/01/06 00:05:55;;;;;;;46.42;18.73;;;;;;;-17.74;61.95;99318.69;4919449;29;20489;-81
2022/01/06 00:08:20;;;;;;;47.85;17.05;;;;;;;-17.68;61.78;99341.81;4887279;29;20044;-83
2022/01/06 00:10:48;;;;;;;29.70;14.32;;;;;;;-17.64;61.39;99358.97;4902720;29;20048;-80
2022/01/06 00:13:18;;;;;;;40.42;15.35;;;;;;;-17.79;61.55;99341.50;4902788;29;20052;-85
2022/01/06 00:23:50;;;;;;;20.98;10.23;;;;;;;-17.88;60.25;99342.91;4916935;29;19918;-83
2022/01/06 00:26:16;;;;;;;24.15;11.90;;;;;;;-17.96;60.12;99340.13;4902952;29;20056;-81
2022/01/06 00:28:42;;;;;;;22.02;10.48;;;;;;;-18.00;60.08;99341.69;4918321;29;20111;-83
2022/01/06 00:31:08;;;;;;;34.20;13.70;;;;;;;-18.02;60.33;99335.66;4919651;29;20065;-84
2022/01/06 00:33:34;;;;;;;39.08;12.80;;;;;;;-18.03;59.92;99330.53;4873050;29;20079;-83
2022/01/06 00:36:00;;;;;;;39.15;13.70;;;;;;;-18.02;59.81;99325.44;4919423;29;20106;-81
2022/01/06 00:38:26;;;;;;;20.15;11.25;;;;;;;-17.99;59.71;99335.78;4903524;29;20500;-83
2022/01/06 00:40:53;;;;;;;29.50;14.07;;;;;;;-18.02;59.66;99324.59;4919545;29;20043;-83
2022/01/06 00:43:19;;;;;;;34.45;13.85;;;;;;;-17.98;59.40;99326.44;4902268;29;20047;-83
2022/01/06 00:45:44;;;;;;;27.42;11.40;;;;;;;-18.04;59.77;99321.13;4933713;29;20048;-81
2022/01/06 00:48:10;;;;;;;28.48;12.32;;;;;;;-18.07;59.61;99305.72;4887051;29;20126;-84
2022/01/06 00:50:38;;;;;;;39.70;13.10;;;;;;;-18.06;59.53;99305.75;4902480;29;20076;-84
2022/01/06 00:53:04;;;;;;;30.02;12.18;;;;;;;-18.08;59.69;99299.75;4886896;29;20078;-82
2022/01/06 00:55:32;;;;;;;26.35;13.38;;;;;;;-18.06;60.07;99303.22;4933548;29;20397;-81
2022/01/06 00:57:58;;;;;;;27.35;12.07;;;;;;;-17.99;60.29;99310.25;4917587;29;20052;-80
2022/01/06 01:00:27;;;;;;;30.90;12.95;;;;;;;-17.97;60.38;99317.97;4932127;29;20059;-80
2022/01/06 01:02:53;;;;;;;28.00;13.68;;;;;;;-17.85;60.08;99346.44;4938192;29;20079;-80
2022/01/06 01:05:20;;;;;;;21.95;9.75;;;;;;;-17.83;60.40;99349.03;4934653;29;20044;-83
2022/01/06 01:07:46;;;;;;;38.38;14.07;;;;;;;-17.91;60.20;99336.88;4902247;29;20044;-82
2022/01/06 01:10:12;;;;;;;22.52;11.68;;;;;;;-17.95;60.02;99324.84;4917297;29;20535;-81
2022/01/06 01:12:38;;;;;;;24.70;11.23;;;;;;;-17.91;59.63;99328.34;4901484;29;20107;-82
2022/01/06 01:15:08;;;;;;;24.65;12.02;;;;;;;-17.92;59.50;99327.50;4933302;29;20052;-81
2022/01/06 01:17:35;;;;;;;24.08;11.70;;;;;;;-17.94;59.34;99326.59;4918361;29;20048;-82
2022/01/06 01:20:02;;;;;;;21.60;11.07;;;;;;;-17.96;58.95;99330.78;4901650;29;20048;-81
2022/01/06 01:22:29;;;;;;;24.30;12.33;;;;;;;-17.97;59.08;99333.28;4901932;29;20139;-82
2022/01/06 01:24:54;;;;;;;27.50;12.00;;;;;;;-18.06;58.92;99338.94;4918605;29;20130;-81
2022/01/06 01:27:22;;;;;;;16.45;8.88;;;;;;;-18.16;58.32;99352.22;4885856;29;20048;-81
2022/01/06 01:30:02;;;;;;;14.48;8.07;;;;;;;-18.28;58.30;99351.78;4916352;29;20062;-81
2022/01/06 01:32:34;;;;;;;18.60;8.95;;;;;;;-18.35;58.37;99349.84;4918123;29;20381;-82
2022/01/06 01:35:02;;;;;;;14.93;9.88;;;;;;;-18.38;58.26;99331.06;4918634;29;20056;-82
2022/01/06 01:37:29;;;;;;;30.70;12.23;;;;;;;-18.39;58.54;99320.81;4900974;29;20080;-82
2022/01/06 01:39:55;;;;;;;22.00;10.25;;;;;;;-18.45;58.74;99324.03;4901391;29;20055;-82
2022/01/06 01:42:21;;;;;;;15.65;10.55;;;;;;;-18.47;58.91;99329.88;4903094;29;20095;-82
2022/01/06 01:44:49;;;;;;;18.90;9.63;;;;;;;-18.65;58.82;99340.28;4920441;29;20036;-81
2022/01/06 01:47:16;;;;;;;27.50;10.80;;;;;;;-18.64;58.65;99347.16;4918688;29;20054;-81
2022/01/06 01:49:53;;;;;;;21.40;10.02;;;;;;;-18.66;58.47;99348.75;4918419;29;20066;-82
2022/01/06 01:52:20;;;;;;;22.00;10.68;;;;;;;-18.71;58.37;99347.78;4916731;29;20051;-81
2022/01/06 01:54:46;;;;;;;28.33;8.32;;;;;;;-18.75;58.55;99343.38;4900773;29;20048;-81
2022/01/06 01:57:11;;;;;;;29.33;12.60;;;;;;;-18.84;58.74;99333.72;4900448;29;20127;-82
2022/01/06 01:59:38;;;;;;;22.75;10.30;;;;;;;-18.85;58.38;99331.13;4916926;29;20127;-81
2022/01/06 02:02:04;;;;;;;23.92;10.73;;;;;;;-18.79;58.54;99326.25;4902285;29;20156;-81
2022/01/06 02:04:30;;;;;;;28.30;12.52;;;;;;;-18.85;58.93;99321.78;4900537;29;20051;-81
2022/01/06 02:06:56;;;;;;;18.45;11.13;;;;;;;-18.78;58.60;99333.06;4900814;29;20094;-83
2022/01/06 02:09:22;;;;;;;19.38;10.75;;;;;;;-18.80;58.62;99344.88;4917383;29;20515;-81
2022/01/06 02:11:48;;;;;;;20.65;10.82;;;;;;;-18.87;58.47;99346.38;4900481;29;20135;-82
2022/01/06 02:14:14;;;;;;;26.05;12.95;;;;;;;-18.93;58.59;99344.44;4900907;29;20071;-81
2022/01/06 02:16:40;;;;;;;20.10;9.50;;;;;;;-18.97;58.92;99339.19;4917564;29;20087;-83
2022/01/06 02:19:06;;;;;;;36.95;14.23;;;;;;;-18.91;58.88;99332.66;4900600;29;20134;-82
2022/01/06 02:21:32;;;;;;;23.10;11.90;;;;;;;-18.89;59.10;99323.34;4916055;29;20056;-80
2022/01/06 02:23:58;;;;;;;26.65;11.00;;;;;;;-18.93;59.21;99310.47;4900416;29;20071;-82
2022/01/06 02:26:24;;;;;;;15.50;8.57;;;;;;;-18.86;59.24;99324.28;4933169;29;20056;-82
2022/01/06 02:28:50;;;;;;;14.38;10.27;;;;;;;-18.82;59.34;99331.22;4915868;29;20095;-82
2022/01/06 02:31:16;;;;;;;23.75;9.60;;;;;;;-18.87;59.43;99333.63;4931609;29;20115;-83
2022/01/06 02:33:42;;;;;;;30.05;13.35;;;;;;;-18.78;59.48;99338.19;4915956;29;20139;-86
2022/01/06 02:36:08;;;;;;;31.35;13.93;;;;;;;-18.80;59.86;99319.41;4869089;29;20075;-85
2022/01/06 02:38:35;;;;;;;22.38;11.98;;;;;;;-18.82;59.81;99311.72;4901249;29;20072;-86
2022/01/06 02:41:01;;;;;;;24.83;12.05;;;;;;;-18.81;59.97;99312.56;4914843;29;20058;-83
2022/01/06 02:43:29;;;;;;;28.10;12.20;;;;;;;-18.79;59.84;99326.25;4917284;29;20123;-84
2022/01/06 02:45:56;;;;;;;21.27;8.90;;;;;;;-18.75;60.07;99323.00;4884592;29;20131;-84
2022/01/06 02:48:22;;;;;;;28.33;11.32;;;;;;;-18.73;60.33;99326.44;4900099;29;20052;-84
2022/01/06 02:50:49;;;;;;;29.95;11.73;;;;;;;-18.77;60.50;99314.41;4931624;29;20055;-83
2022/01/06 02:53:16;;;;;;;30.08;10.63;;;;;;;-18.78;60.68;99303.34;4884126;29;20051;-82
2022/01/06 02:55:50;;;;;;;25.98;12.30;;;;;;;-18.69;60.86;99318.06;4915525;29;20055;-82
2022/01/06 02:58:17;;;;;;;25.50;12.73;;;;;;;-18.73;60.52;99308.59;4900064;29;20137;-81
2022/01/06 03:00:44;;;;;;;24.35;10.25;;;;;;;-18.65;60.92;99312.25;4868901;29;20048;-83
2022/01/06 03:03:10;;;;;;;31.13;13.80;;;;;;;-18.61;61.02;99321.78;4915742;29;20052;-82
2022/01/06 03:05:36;;;;;;;44.03;15.85;;;;;;;-18.59;61.05;99319.25;4899940;29;20103;-82
2022/01/06 03:08:02;;;;;;;37.50;15.15;;;;;;;-18.62;60.95;99320.00;4884212;29;20492;-82
2022/01/06 03:10:30;;;;;;;42.63;13.32;;;;;;;-18.51;61.29;99339.09;4900056;29;20055;-82
2022/01/06 03:12:56;;;;;;;48.28;17.48;;;;;;;-18.49;61.14;99329.84;4900199;29;20052;-81
2022/01/06 03:15:23;;;;;;;95.30;30.48;;;;;;;-18.47;61.42;99335.84;4915554;29;20451;-82
2022/01/06 03:17:51;;;;;;;94.57;32.95;;;;;;;-18.51;61.77;99328.91;4931070;29;20524;-83
2022/01/06 03:20:18;;;;;;;162.40;40.38;;;;;;;-18.48;62.08;99338.34;4868541;29;20063;-81
2022/01/06 03:22:44;;;;;;;104.15;32.67;;;;;;;-18.52;62.39;99334.81;4900110;29;20040;-82
2022/01/06 03:25:11;;;;;;;110.43;36.25;;;;;;;-18.52;62.60;99337.38;4899908;29;20054;-82
2022/01/06 03:27:38;;;;;;;144.18;41.38;;;;;;;-18.53;63.01;99335.66;4899944;29;20411;-81
2022/01/06 03:30:05;;;;;;;140.63;36.00;;;;;;;-18.48;63.23;99339.22;4915510;29;20055;-82
2022/01/06 03:32:31;;;;;;;142.70;36.80;;;;;;;-18.44;63.59;99330.84;4884183;29;20052;-81
2022/01/06 03:34:57;;;;;;;142.65;39.40;;;;;;;-18.34;63.96;99347.34;4916577;29;20052;-81
2022/01/06 03:37:22;;;;;;;130.70;42.78;;;;;;;-18.28;63.95;99346.69;4883564;29;20475;-82
2022/01/06 03:39:49;;;;;;;145.75;41.97;;;;;;;-18.24;63.92;99351.06;4899494;29;20060;-82
2022/01/06 03:42:14;;;;;;;120.40;35.58;;;;;;;-18.24;63.98;99363.81;4916649;29;20146;-82
2022/01/06 03:44:40;;;;;;;100.32;32.58;;;;;;;-18.24;63.72;99353.63;4884003;29;20531;-84
2022/01/06 03:47:06;;;;;;;104.40;28.10;;;;;;;-18.29;63.58;99344.94;4899565;29;20138;-83
2022/01/06 03:49:33;;;;;;;66.80;23.42;;;;;;;-18.25;63.58;99350.19;4899619;29;20090;-83
2022/01/06 03:51:58;;;;;;;76.93;24.02;;;;;;;-18.26;63.70;99350.16;4884794;29;20075;-83
2022/01/06 03:54:24;;;;;;;115.70;26.60;;;;;;;-18.23;63.52;99360.47;4903245;29;20079;-83
2022/01/06 03:56:50;;;;;;;82.88;25.85;;;;;;;-18.18;63.36;99349.59;4887740;29;20095;-81
2022/01/06 03:59:16;;;;;;;81.78;27.95;;;;;;;-18.18;63.61;99353.84;4903618;29;20063;-81
2022/01/06 04:01:43;;;;;;;105.95;26.67;;;;;;;-18.17;63.61;99356.44;4903611;29;20056;-80
2022/01/06 04:04:10;;;;;;;115.25;29.98;;;;;;;-18.10;63.35;99362.63;4887594;29;20040;-82
2022/01/06 04:06:36;;;;;;;85.57;27.88;;;;;;;-18.09;63.73;99366.88;4918875;29;20496;-81
2022/01/06 04:09:02;;;;;;;90.30;28.25;;;;;;;-18.10;63.52;99377.06;4919712;29;20044;-78
2022/01/06 04:11:28;;;;;;;91.28;26.60;;;;;;;-18.08;63.71;99372.88;4871551;29;20083;-80
2022/01/06 04:13:54;;;;;;;109.82;30.65;;;;;;;-18.07;63.76;99366.97;4918412;29;20059;-79
2022/01/06 04:16:20;;;;;;;76.88;23.70;;;;;;;-18.11;63.84;99355.78;4886908;29;20067;-81
2022/01/06 04:18:46;;;;;;;93.60;25.85;;;;;;;-17.99;63.63;99356.19;4902790;29;20503;-81
2022/01/06 04:21:12;;;;;;;78.63;25.38;;;;;;;-18.01;62.86;99365.50;4893454;29;20043;-83
2022/01/06 04:23:38;;;;;;;102.00;26.00;;;;;;;-18.10;63.00;99362.63;4923278;29;20048;-81
2022/01/06 04:26:04;;;;;;;122.32;29.83;;;;;;;-18.05;62.83;99366.22;4873115;29;20519;-81
2022/01/06 04:28:30;;;;;;;111.88;27.30;;;;;;;-18.07;62.62;99362.72;4920292;29;20044;-84
2022/01/06 04:30:56;;;;;;;80.90;21.02;;;;;;;-18.10;62.61;99365.16;4868109;29;20051;-84
2022/01/06 04:33:22;;;;;;;84.97;27.58;;;;;;;-18.20;62.31;99360.56;4887190;29;20048;-80
2022/01/06 04:35:48;;;;;;;96.93;23.60;;;;;;;-18.31;62.39;99344.03;4909605;29;20389;-78
2022/01/06 04:38:14;;;;;;;95.45;21.65;;;;;;;-18.40;62.45;99342.03;4903934;29;20052;-81
2022/01/06 04:40:40;;;;;;;95.03;27.73;;;;;;;-18.45;62.34;99323.16;4926912;29;20064;-81
2022/01/06 04:43:07;;;;;;;75.57;22.10;;;;;;;-18.41;62.40;99328.41;4887924;29;20063;-81
2022/01/06 04:45:34;;;;;;;109.82;25.63;;;;;;;-18.50;63.37;99330.66;4906976;29;20040;-83
2022/01/06 04:48:00;;;;;;;96.32;25.77;;;;;;;-18.40;63.51;99342.03;4856941;29;20044;-76
2022/01/06 04:50:26;;;;;;;58.15;16.80;;;;;;;-18.40;63.35;99337.78;4919570;29;20551;-81
2022/01/06 04:52:52;;;;;;;91.00;20.58;;;;;;;-18.35;62.63;99327.78;4902375;29;20091;-83
2022/01/06 04:55:18;;;;;;;69.95;20.25;;;;;;;-18.38;61.96;99327.66;4887019;29;20047;-87
2022/01/06 04:57:44;;;;;;;37.22;14.73;;;;;;;-18.48;61.53;99313.72;4918105;29;20044;-78
2022/01/06 05:00:10;;;;;;;64.45;18.35;;;;;;;-18.49;61.55;99313.69;4886869;29;20048;-80
2022/01/06 05:02:37;;;;;;;37.80;14.68;;;;;;;-18.55;61.58;99311.78;4885948;29;20416;-82
2022/01/06 05:05:03;;;;;;;68.53;17.00;;;;;;;-18.48;61.52;99308.63;4901050;29;20126;-78
2022/01/06 05:07:29;;;;;;;46.55;18.40;;;;;;;-18.27;61.46;99317.84;4901802;29;20436;-87
2022/01/06 05:09:55;;;;;;;56.83;14.70;;;;;;;-18.20;61.13;99327.41;4933664;29;20056;-80
2022/01/06 05:12:22;;;;;;;64.85;20.55;;;;;;;-18.06;61.03;99331.28;4918775;29;20135;-79
2022/01/06 05:14:47;;;;;;;44.50;15.68;;;;;;;-17.97;60.97;99330.72;4870612;29;20047;-80
2022/01/06 05:17:13;;;;;;;53.90;20.40;;;;;;;-17.87;60.83;99319.13;4916822;29;20079;-80
2022/01/06 05:19:39;;;;;;;48.70;12.88;;;;;;;-17.71;60.46;99317.09;4902248;29;20082;-83
2022/01/06 05:22:05;;;;;;;80.55;21.70;;;;;;;-17.83;59.84;99310.75;4936809;29;20126;-85
2022/01/06 05:24:32;;;;;;;46.30;15.32;;;;;;;-17.69;59.81;99309.47;4901945;29;20040;-80
2022/01/06 05:26:59;;;;;;;65.53;22.85;;;;;;;-17.70;59.11;99307.75;4902472;29;20095;-81
2022/01/06 05:29:24;;;;;;;49.65;19.88;;;;;;;-17.55;59.01;99298.00;4870389;29;20048;-80
2022/01/06 05:31:50;;;;;;;33.20;15.57;;;;;;;-17.33;59.55;99304.63;4901603;29;20083;-79
2022/01/06 05:34:16;;;;;;;68.57;24.13;;;;;;;-17.12;59.06;99309.47;4911528;29;20051;-82
2022/01/06 05:36:43;;;;;;;82.13;25.15;;;;;;;-16.92;58.82;99302.41;4904636;29;20065;-82
2022/01/06 05:39:09;;;;;;;52.53;17.23;;;;;;;-16.93;57.90;99303.22;4908125;29;20045;-83
2022/01/06 05:41:34;;;;;;;52.30;18.50;;;;;;;-16.91;57.54;99299.88;4903050;29;20432;-79
2022/01/06 05:44:01;;;;;;;64.93;21.67;;;;;;;-16.81;57.99;99295.00;4897343;29;20131;-79
2022/01/06 05:46:26;;;;;;;55.28;19.15;;;;;;;-16.58;58.22;99293.94;4881892;29;20040;-81
2022/01/06 05:48:52;;;;;;;63.25;18.25;;;;;;;-16.45;57.88;99284.88;4897266;29;20138;-83
2022/01/06 05:51:18;;;;;;;74.47;21.88;;;;;;;-16.45;57.36;99293.41;4897697;29;20076;-77
2022/01/06 05:53:45;;;;;;;68.50;22.35;;;;;;;-16.23;57.67;99296.53;4897337;29;20048;-78
2022/01/06 05:56:11;;;;;;;72.65;23.90;;;;;;;-16.08;56.80;99301.19;4898087;29;20064;-80
2022/01/06 05:58:40;;;;;;;107.05;29.27;;;;;;;-16.03;56.89;99299.59;4897304;29;20052;-80
2022/01/06 06:01:07;;;;;;;108.45;31.33;;;;;;;-16.02;56.11;99301.31;4913921;29;20488;-82
2022/01/06 06:03:35;;;;;;;87.65;26.08;;;;;;;-16.10;56.07;99282.34;4883609;29;20404;-81
2022/01/06 06:06:01;;;;;;;115.93;34.17;;;;;;;-15.97;56.56;99264.78;4874441;29;20104;-84
2022/01/06 06:08:27;;;;;;;120.32;33.22;;;;;;;-15.89;56.45;99254.72;4868007;29;20067;-81
2022/01/06 06:10:53;;;;;;;119.63;34.72;;;;;;;-15.68;56.72;99251.78;4868295;29;20071;-82
2022/01/06 06:13:19;;;;;;;150.52;42.08;;;;;;;-15.35;56.96;99245.63;4898824;29;20579;-82
2022/01/06 06:15:44;;;;;;;137.43;37.15;;;;;;;-15.24;56.82;99239.88;4915574;29;20103;-79
2022/01/06 06:18:12;;;;;;;168.10;46.40;;;;;;;-14.97;57.51;99244.75;4884340;29;20079;-82
2022/01/06 06:20:38;;;;;;;120.60;38.10;;;;;;;-14.68;57.11;99246.13;4884161;29;20048;-87
2022/01/06 06:23:04;;;;;;;164.93;50.90;;;;;;;-14.47;57.21;99231.09;4884616;29;20547;-82
2022/01/06 06:25:30;;;;;;;149.98;46.10;;;;;;;-14.30;57.39;99239.06;4900280;29;20229;-82
2022/01/06 06:27:57;;;;;;;178.20;50.53;;;;;;;-14.30;57.70;99214.25;4884301;29;20058;-80
2022/01/06 06:30:23;;;;;;;167.55;48.53;;;;;;;-14.16;58.15;99227.34;4869279;29;20048;-80
2022/01/06 06:32:49;;;;;;;152.82;53.33;;;;;;;-13.99;58.14;99225.94;4900333;29;20100;-85
2022/01/06 06:35:15;;;;;;;168.30;56.40;;;;;;;-13.85;58.32;99231.25;4865364;29;20099;-84
2022/01/06 06:37:41;;;;;;;150.35;47.63;;;;;;;-13.52;58.29;99236.03;4884644;29;20147;-85
2022/01/06 06:40:07;;;;;;;159.68;50.03;;;;;;;-13.47;57.39;99236.94;4917213;29;20072;-82
2022/01/06 06:42:33;;;;;;;129.80;42.00;;;;;;;-13.32;56.75;99241.44;4884147;29;20045;-87
2022/01/06 06:44:59;;;;;;;118.53;27.92;;;;;;;-13.24;56.25;99239.88;4868794;29;20079;-87
2022/01/06 06:47:27;;;;;;;150.23;47.60;;;;;;;-13.32;54.81;99240.59;4899824;29;20146;-84
2022/01/06 06:49:56;;;;;;;157.23;47.05;;;;;;;-13.28;55.51;99237.22;4899448;29;20066;-80
2022/01/06 06:52:22;;;;;;;176.05;50.83;;;;;;;-13.24;55.47;99231.25;4899699;29;20070;-80
2022/01/06 06:54:48;;;;;;;118.68;37.25;;;;;;;-13.28;55.16;99237.22;4899215;29;20064;-85
2022/01/06 06:57:14;;;;;;;173.07;48.05;;;;;;;-13.41;55.47;99240.47;4890333;29;20052;-82
2022/01/06 06:59:40;;;;;;;199.20;51.72;;;;;;;-13.36;55.24;99249.09;4926715;29;20064;-86
2022/01/06 07:02:06;;;;;;;165.15;49.05;;;;;;;-13.41;55.04;99245.63;4871673;29;20471;-84
2022/01/06 07:04:32;;;;;;;144.23;42.15;;;;;;;-13.37;55.00;99231.94;4915753;29;20099;-85
2022/01/06 07:06:58;;;;;;;163.77;45.15;;;;;;;-13.28;55.48;99242.34;4868197;29;20054;-87
2022/01/06 07:09:24;;;;;;;162.77;45.63;;;;;;;-13.19;56.00;99234.75;4883741;29;20054;-84
2022/01/06 07:11:50;;;;;;;144.80;46.45;;;;;;;-13.09;56.21;99231.41;4866819;29;20051;-87
2022/01/06 07:14:16;;;;;;;143.00;41.75;;;;;;;-12.97;56.44;99221.31;4916883;29;20904;-85
2022/01/06 07:16:42;;;;;;;103.10;35.70;;;;;;;-13.07;56.87;99218.59;4918922;29;20052;-84
2022/01/06 07:19:08;;;;;;;115.60;34.22;;;;;;;-12.85;57.51;99237.72;4871738;29;20040;-86
2022/01/06 07:21:34;;;;;;;90.32;28.85;;;;;;;-12.67;57.38;99243.09;4899753;29;20072;-87
2022/01/06 07:24:00;;;;;;;81.90;27.75;;;;;;;-12.35;57.90;99227.09;4900177;29;20096;-81
2022/01/06 07:26:35;;;;;;;81.75;28.17;;;;;;;-12.09;57.37;99222.19;4899987;29;20071;-84
2022/01/06 07:29:02;;;;;;;75.82;25.40;;;;;;;-12.15;57.31;99202.38;4887320;29;20510;-88
2022/01/06 07:31:29;;;;;;;91.38;27.15;;;;;;;-12.05;57.38;99201.59;4877602;29;20419;-82
2022/01/06 07:33:55;;;;;;;69.85;26.65;;;;;;;-12.06;57.78;99191.28;4886984;29;20071;-82
2022/01/06 07:36:21;;;;;;;47.25;15.13;;;;;;;-12.11;57.28;99193.84;4871332;29;20060;-84
2022/01/06 07:38:47;;;;;;;62.55;22.25;;;;;;;-12.20;57.07;99192.88;4919958;29;20048;-86
2022/01/06 07:41:13;;;;;;;75.35;25.77;;;;;;;-12.16;57.90;99190.34;4920227;29;20471;-88
2022/01/06 07:43:39;;;;;;;86.85;26.05;;;;;;;-11.97;57.85;99195.66;4908058;29;20076;-84
2022/01/06 07:46:06;;;;;;;85.10;27.05;;;;;;;-11.63;58.21;99187.25;4901155;29;20080;-86
2022/01/06 07:48:47;;;;;;;57.72;23.17;;;;;;;-11.67;57.31;99185.50;4899812;29;20056;-84
2022/01/06 07:51:15;;;;;;;99.43;28.38;;;;;;;-11.55;57.63;99195.88;4901688;29;20068;-93
2022/01/06 07:53:41;;;;;;;83.50;27.65;;;;;;;-11.18;57.68;99198.66;4902250;29;20060;-81
2022/01/06 07:56:07;;;;;;;83.05;27.67;;;;;;;-10.87;57.32;99201.38;4869943;29;20139;-86
2022/01/06 07:58:33;;;;;;;74.07;26.75;;;;;;;-10.47;56.80;99196.31;4899947;29;20128;-81
2022/01/06 08:01:01;;;;;;;99.35;32.70;;;;;;;-10.15;55.61;99181.69;4899385;29;20048;-82
2022/01/06 08:03:27;;;;;;;108.55;32.53;;;;;;;-9.98;55.30;99142.03;4868001;29;20057;-81
2022/01/06 08:05:53;;;;;;;106.80;31.17;;;;;;;-9.97;54.68;99147.19;4853539;29;20044;-90
2022/01/06 08:08:19;;;;;;;104.38;31.50;;;;;;;-10.13;54.68;99154.09;4886738;29;20064;-86
2022/01/06 08:10:45;;;;;;;98.38;31.23;;;;;;;-10.27;55.23;99161.03;4856820;29;20048;-82
2022/01/06 08:13:11;;;;;;;96.07;31.67;;;;;;;-10.38;55.31;99165.31;4899840;29;20108;-82
2022/01/06 08:15:37;;;;;;;90.40;29.70;;;;;;;-10.47;56.85;99160.16;4860126;29;20088;-82
2022/01/06 08:18:03;;;;;;;96.97;31.00;;;;;;;-10.38;56.89;99149.81;4866918;29;20073;-84
2022/01/06 08:20:29;;;;;;;98.38;30.30;;;;;;;-10.13;57.06;99168.75;4850125;29;20041;-83
2022/01/06 08:22:55;;;;;;;75.22;30.70;;;;;;;-10.25;57.15;99151.56;4865400;29;20143;-83
2022/01/06 08:25:21;;;;;;;83.43;29.17;;;;;;;-9.83;57.81;99165.28;4865490;29;20525;-80
2022/01/06 08:27:47;;;;;;;80.35;28.13;;;;;;;-9.53;56.97;99159.19;4849800;29;20481;-83
2022/01/06 08:30:13;;;;;;;75.18;25.67;;;;;;;-9.34;56.72;99141.91;4865093;29;20041;-82
2022/01/06 08:32:39;;;;;;;60.78;22.30;;;;;;;-9.37;56.95;99139.31;4870296;29;20087;-81
2022/01/06 08:35:06;;;;;;;68.18;27.33;;;;;;;-9.58;56.86;99141.09;4884623;29;20536;-82
2022/01/06 08:37:32;;;;;;;75.97;29.55;;;;;;;-9.48;57.55;99141.06;4898253;29;20056;-81
2022/01/06 08:39:58;;;;;;;74.95;24.10;;;;;;;-9.35;57.75;99135.00;4855671;29;20044;-83
2022/01/06 08:42:24;;;;;;;67.35;23.88;;;;;;;-9.31;57.57;99134.97;4885175;29;20139;-84
2022/01/06 08:44:50;;;;;;;72.93;24.42;;;;;;;-9.21;58.00;99135.81;4900740;29;20460;-82
2022/01/06 08:47:16;;;;;;;64.63;26.20;;;;;;;-9.10;58.09;99130.56;4904422;29;20048;-82
2022/01/06 08:49:42;;;;;;;90.28;28.35;;;;;;;-8.76;59.53;99120.91;4856350;29;20044;-83
2022/01/06 08:52:08;;;;;;;77.75;26.52;;;;;;;-8.65;57.49;99106.16;4842241;29;20424;-82
2022/01/06 08:54:34;;;;;;;66.18;24.88;;;;;;;-8.60;57.38;99104.38;4856173;29;20226;-83
2022/01/06 08:57:01;;;;;;;71.32;25.90;;;;;;;-8.45;57.42;99106.00;4886755;29;20086;-79
2022/01/06 08:59:27;;;;;;;58.65;24.58;;;;;;;-8.45;57.70;99107.75;4871657;29;20040;-81
2022/01/06 09:01:53;;;;;;;59.33;21.38;;;;;;;-8.40;57.85;99104.22;4842080;29;20138;-80
2022/01/06 09:04:20;;;;;;;57.78;21.35;;;;;;;-8.18;58.17;99098.84;4855915;29;20453;-80
2022/01/06 09:06:49;;;;;;;60.60;20.63;;;;;;;-8.16;58.06;99100.56;4863331;29;20550;-84
2022/01/06 09:09:15;;;;;;;65.07;23.58;;;;;;;-8.02;57.60;99113.38;4886993;29;20095;-82
2022/01/06 09:11:41;;;;;;;74.57;24.77;;;;;;;-8.00;57.33;99077.09;4851019;29;20083;-83
2022/01/06 09:14:08;;;;;;;68.25;24.92;;;;;;;-7.85;57.28;99069.16;4851292;29;20067;-83
2022/01/06 09:16:34;;;;;;;68.05;24.70;;;;;;;-7.89;56.85;99078.69;4851071;29;20457;-84
2022/01/06 09:19:00;;;;;;;75.72;26.70;;;;;;;-7.90;56.45;99091.66;4835986;29;20104;-83
2022/01/06 09:21:26;;;;;;;61.63;23.77;;;;;;;-8.22;56.74;99090.22;4820796;29;20040;-83
2022/01/06 09:23:52;;;;;;;96.30;29.63;;;;;;;-8.18;57.16;99086.75;4835909;29;20094;-83
2022/01/06 09:26:18;;;;;;;106.88;29.90;;;;;;;-8.08;57.58;99082.34;4866488;29;20066;-82
2022/01/06 09:28:45;;;;;;;75.57;27.75;;;;;;;-7.89;57.74;99078.69;4851020;29;20053;-84
2022/01/06 09:31:11;;;;;;;89.00;29.60;;;;;;;-7.71;57.79;99080.25;4851688;29;20100;-84
2022/01/06 09:33:37;;;;;;;80.03;27.02;;;;;;;-7.63;57.52;99065.44;4820977;29;20152;-82
2022/01/06 09:36:04;;;;;;;81.82;28.75;;;;;;;-7.55;57.65;99060.16;4821771;29;20072;-82
2022/01/06 09:38:31;;;;;;;90.40;30.00;;;;;;;-7.55;58.18;99041.13;4821128;29;20101;-83
2022/01/06 09:41:00;;;;;;;102.20;33.42;;;;;;;-7.54;58.58;99048.03;4835726;29;20044;-83
2022/01/06 09:43:26;;;;;;;93.33;33.40;;;;;;;-7.55;58.69;99036.78;4820884;29;20087;-82
2022/01/06 09:45:52;;;;;;;102.18;33.30;;;;;;;-7.45;59.37;99040.13;4881279;29;20293;-83
2022/01/06 09:48:21;;;;;;;129.43;35.78;;;;;;;-7.37;59.81;99046.97;4823693;29;20064;-82
2022/01/06 09:50:47;;;;;;;;;;;;;;;-7.43;60.38;99053.97;4885415;29;20495;-84
2022/01/06 09:53:13;;;;;;;97.15;28.83;;;;;;;-7.45;60.08;99047.91;4932964;29;19947;-83
2022/01/06 09:55:40;;;;;;;115.10;30.42;;;;;;;-7.44;60.73;99060.03;4918414;29;20469;-83
2022/01/06 09:58:06;;;;;;;119.60;35.97;;;;;;;-7.40;60.98;99059.97;4870428;29;20103;-84
2022/01/06 10:00:34;;;;;;;112.97;33.80;;;;;;;-7.30;60.51;99062.44;4869971;29;20067;-82
2022/01/06 10:03:01;;;;;;;75.78;25.60;;;;;;;-7.28;60.66;99071.09;4916774;29;20054;-84
2022/01/06 10:05:50;;;;;;;82.55;25.70;;;;;;;-7.24;60.24;99060.63;4854242;29;20055;-83
2022/01/06 10:08:27;;;;;;;66.03;21.80;;;;;;;-7.26;60.34;99059.78;4854912;29;20523;-79
2022/01/06 10:11:10;;;;;;;60.50;20.45;;;;;;;-7.27;60.13;99058.06;4850331;29;20052;-82
2022/01/06 10:13:37;;;;;;;57.42;20.88;;;;;;;-7.16;60.15;99051.00;4884723;29;20044;-81
2022/01/06 10:16:14;;;;;;;72.97;23.00;;;;;;;-7.15;60.42;99047.50;4916100;29;20052;-80
2022/01/06 10:18:42;;;;;;;57.28;20.92;;;;;;;-7.10;60.40;99040.53;4907779;29;20084;-82
2022/01/06 10:21:14;;;;;;;98.18;23.63;;;;;;;-7.01;60.60;99025.69;4896980;29;20045;-82
2022/01/06 10:23:40;;;;;;;68.88;23.92;;;;;;;-6.89;61.20;99048.88;4897468;29;20500;-81
2022/01/06 10:26:13;;;;;;;55.88;20.80;;;;;;;-6.82;60.93;99054.88;4866225;29;20142;-83
2022/01/06 10:28:40;;;;;;;45.72;15.38;;;;;;;-6.82;61.03;99060.91;4912460;29;20072;-81
2022/01/06 10:31:06;;;;;;;47.35;16.35;;;;;;;-6.88;61.31;99066.22;4897192;29;20076;-82
2022/01/06 10:33:39;;;;;;;43.08;14.68;;;;;;;-6.87;61.69;99065.34;4897020;29;20466;-82
2022/01/06 10:36:06;;;;;;;43.78;14.70;;;;;;;-6.96;62.29;99070.63;4923571;29;20068;-82
2022/01/06 10:38:32;;;;;;;33.03;13.25;;;;;;;-7.00;62.68;99055.97;4917240;29;20143;-81
2022/01/06 10:41:18;;;;;;;37.63;13.13;;;;;;;-6.85;62.60;99061.81;4917723;29;20040;-83
2022/01/06 10:43:51;;;;;;;36.92;12.98;;;;;;;-6.88;62.88;99061.03;4885347;29;20056;-82
2022/01/06 10:46:28;;;;;;;29.45;13.32;;;;;;;-6.92;63.17;99059.31;4899763;29;20059;-81
2022/01/06 10:49:01;;;;;;;34.33;12.30;;;;;;;-6.86;63.41;99064.44;4869540;29;20485;-82
2022/01/06 10:51:36;;;;;;;31.65;11.68;;;;;;;-6.68;62.87;99042.53;4885093;29;20127;-83
2022/01/06 10:54:03;;;;;;;31.67;11.80;;;;;;;-6.61;62.96;99050.19;4900159;29;20071;-82
2022/01/06 10:56:29;;;;;;;29.70;11.55;;;;;;;-6.55;62.85;99048.38;4915660;29;20593;-83
2022/01/06 10:58:57;;;;;;;30.35;11.75;;;;;;;-6.49;63.08;99045.69;4899547;29;20143;-82
2022/01/06 11:01:22;;;;;;;36.25;12.30;;;;;;;-6.41;62.74;99044.69;4899402;29;20050;-84
2022/01/06 11:03:49;;;;;;;36.35;12.82;;;;;;;-6.34;63.08;99048.03;4900244;29;20044;-85
2022/01/06 11:06:15;;;;;;;26.98;11.52;;;;;;;-6.29;63.02;99041.00;4884408;29;20516;-82
2022/01/06 11:08:41;;;;;;;31.85;13.05;;;;;;;-6.28;62.83;99028.84;4900244;29;20504;-82
2022/01/06 11:13:44;;;;;;;37.65;14.90;;;;;;;-6.11;63.11;99045.91;4899972;29;20108;-83
2022/01/06 11:16:14;;;;;;;37.97;14.52;;;;;;;-6.07;63.04;99053.66;4884813;29;20143;-83
2022/01/06 11:18:57;;;;;;;34.17;12.57;;;;;;;-6.16;63.79;99047.72;4884460;29;20052;-82